createdAt,value
2022-10-25T00:01:31.833Z,17.16
2022-10-25T00:04:00.123Z,17.16
2022-10-25T00:06:28.289Z,17.17
2022-10-25T00:08:56.453Z,17.16
2022-10-25T00:11:27.915Z,17.15
2022-10-25T00:13:59.095Z,17.12
2022-10-25T00:16:30.415Z,17.07
2022-10-25T00:18:58.675Z,17.05
2022-10-25T00:21:27.104Z,17.02
2022-10-25T00:23:55.267Z,17.00
2022-10-25T00:26:23.363Z,16.98
2022-10-25T00:28:56.424Z,16.94
2022-10-25T00:31:25.047Z,16.94
2022-10-25T00:33:53.194Z,16.92
2022-10-25T00:36:25.143Z,16.87
2022-10-25T00:38:55.958Z,16.84
2022-10-25T00:41:27.639Z,16.81
2022-10-25T00:44:17.203Z,16.82
2022-10-25T00:46:45.940Z,16.84
2022-10-25T00:49:18.886Z,16.87
2022-10-25T00:51:53.836Z,16.86
2022-10-25T00:54:28.980Z,16.86
2022-10-25T00:57:01.084Z,16.77
2022-10-25T00:59:29.805Z,16.57
2022-10-25T01:01:58.417Z,16.43
2022-10-25T01:04:30.684Z,16.33
2022-10-25T01:07:00.935Z,16.22
2022-10-25T01:09:34.197Z,16.16
2022-10-25T01:12:02.410Z,16.16
2022-10-25T01:14:34.878Z,16.09
2022-10-25T01:17:26.169Z,16.24
2022-10-25T01:20:31.446Z,16.31
2022-10-25T01:23:28.240Z,16.36
2022-10-25T01:26:26.704Z,16.13
2022-10-25T01:29:15.925Z,16.02
2022-10-25T01:31:56.673Z,16.03
2022-10-25T01:34:34.336Z,15.95
2022-10-25T01:37:05.202Z,15.93
2022-10-25T01:39:46.698Z,15.95
2022-10-25T01:42:43.917Z,15.96
2022-10-25T01:45:25.569Z,16.00
2022-10-25T01:47:59.489Z,16.08
2022-10-25T01:50:38.913Z,16.16
2022-10-25T01:53:07.127Z,16.22
2022-10-25T01:55:58.268Z,16.26
2022-10-25T01:58:46.088Z,16.33
2022-10-25T02:01:29.460Z,16.26
2022-10-25T02:04:29.257Z,16.26
2022-10-25T02:07:06.579Z,16.13
2022-10-25T02:09:53.669Z,16.04
2022-10-25T02:12:30.417Z,16.11
2022-10-25T02:15:22.112Z,16.02
2022-10-25T02:18:02.281Z,16.07
2022-10-25T02:20:34.596Z,16.13
2022-10-25T02:23:06.383Z,16.18
2022-10-25T02:25:37.365Z,16.23
2022-10-25T02:28:10.076Z,16.30
2022-10-25T02:30:40.412Z,16.36
2022-10-25T02:33:08.572Z,16.37
2022-10-25T02:35:37.519Z,16.42
2022-10-25T02:38:05.851Z,16.50
2022-10-25T02:40:34.467Z,16.58
2022-10-25T02:43:02.663Z,16.65
2022-10-25T02:45:30.750Z,16.74
2022-10-25T02:47:58.922Z,16.78
2022-10-25T02:50:27.055Z,16.78
2022-10-25T02:52:55.165Z,16.78
2022-10-25T02:55:23.312Z,16.75
2022-10-25T02:57:51.494Z,16.72
2022-10-25T03:00:19.763Z,16.57
2022-10-25T03:02:48.072Z,16.49
2022-10-25T03:05:17.609Z,16.39
2022-10-25T03:07:45.781Z,16.31
2022-10-25T03:10:14.128Z,16.23
2022-10-25T03:12:43.269Z,16.22
2022-10-25T03:15:12.751Z,16.24
2022-10-25T03:17:40.860Z,16.29
2022-10-25T03:20:09.647Z,16.22
2022-10-25T03:22:38.024Z,16.20
2022-10-25T03:25:06.809Z,16.13
2022-10-25T03:27:34.924Z,16.13
2022-10-25T03:30:06.383Z,16.14
2022-10-25T03:32:34.527Z,16.12
2022-10-25T03:35:02.679Z,16.10
2022-10-25T03:37:30.941Z,16.09
2022-10-25T03:39:59.085Z,16.09
2022-10-25T03:42:27.284Z,16.08
2022-10-25T03:44:55.465Z,16.01
2022-10-25T03:47:23.752Z,15.95
2022-10-25T03:49:51.886Z,15.79
2022-10-25T03:52:22.204Z,15.68
2022-10-25T03:54:50.921Z,15.57
2022-10-25T03:57:19.215Z,15.56
2022-10-25T03:59:47.399Z,15.55
2022-10-25T04:02:16.301Z,15.56
2022-10-25T04:04:44.537Z,15.62
2022-10-25T04:07:12.693Z,15.67
2022-10-25T04:09:40.864Z,15.72
2022-10-25T04:12:08.978Z,15.74
2022-10-25T04:14:38.343Z,15.77
2022-10-25T04:17:06.488Z,15.76
2022-10-25T04:19:35.971Z,15.84
2022-10-25T04:22:04.235Z,15.85
2022-10-25T04:24:32.506Z,15.89
2022-10-25T04:27:00.668Z,15.86
2022-10-25T04:29:28.837Z,15.90
2022-10-25T04:31:56.994Z,15.95
2022-10-25T04:34:25.165Z,15.94
2022-10-25T04:36:53.289Z,15.91
2022-10-25T04:39:21.400Z,15.90
2022-10-25T04:41:49.614Z,15.90
2022-10-25T04:44:17.881Z,15.92
2022-10-25T04:46:48.649Z,15.95
2022-10-25T04:49:17.392Z,15.98
2022-10-25T04:51:45.637Z,16.07
2022-10-25T04:54:13.878Z,16.18
2022-10-25T04:56:41.967Z,16.27
2022-10-25T04:59:10.173Z,16.31
2022-10-25T05:01:41.610Z,16.34
2022-10-25T05:04:09.826Z,16.40
2022-10-25T05:06:37.969Z,16.45
2022-10-25T05:09:06.200Z,16.48
2022-10-25T05:11:34.459Z,16.52
2022-10-25T05:14:02.560Z,16.64
2022-10-25T05:16:34.384Z,16.58
2022-10-25T05:19:02.766Z,16.51
2022-10-25T05:21:31.409Z,16.41
2022-10-25T05:24:02.174Z,16.34
2022-10-25T05:26:31.983Z,16.32
2022-10-25T05:29:04.587Z,16.22
2022-10-25T05:31:36.271Z,16.13
2022-10-25T05:34:06.693Z,16.13
2022-10-25T05:36:34.816Z,16.18
2022-10-25T05:39:03.107Z,16.21
2022-10-25T05:41:34.587Z,16.22
2022-10-25T05:44:05.977Z,16.20
2022-10-25T05:46:34.261Z,16.17
2022-10-25T05:49:02.631Z,16.18
2022-10-25T05:51:36.198Z,16.20
2022-10-25T05:54:13.832Z,16.24
2022-10-25T05:56:42.949Z,16.26
2022-10-25T05:59:13.613Z,16.31
2022-10-25T06:01:44.138Z,16.33
2022-10-25T06:04:13.397Z,16.37
2022-10-25T06:06:43.178Z,16.40
2022-10-25T06:09:12.093Z,16.42
2022-10-25T06:11:40.810Z,16.44
2022-10-25T06:14:11.085Z,16.46
2022-10-25T06:16:39.280Z,16.50
2022-10-25T06:19:07.892Z,16.55
2022-10-25T06:21:36.218Z,16.59
2022-10-25T06:24:04.634Z,16.63
2022-10-25T06:26:33.367Z,16.64
2022-10-25T06:29:03.998Z,16.67
2022-10-25T06:31:33.057Z,16.69
2022-10-25T06:34:01.932Z,16.73
2022-10-25T06:36:31.375Z,16.72
2022-10-25T06:39:05.212Z,16.72
2022-10-25T06:41:39.660Z,16.77
2022-10-25T06:44:08.124Z,16.77
2022-10-25T06:47:04.376Z,16.80
2022-10-25T06:49:26.787Z,16.80
2022-10-25T06:51:55.191Z,16.81
2022-10-25T06:54:25.499Z,16.79
2022-10-25T06:56:53.698Z,16.76
2022-10-25T06:59:22.014Z,16.69
2022-10-25T07:01:54.154Z,16.69
2022-10-25T07:04:22.469Z,16.72
2022-10-25T07:06:53.006Z,16.81
2022-10-25T07:09:26.508Z,16.89
2022-10-25T07:11:54.661Z,16.94
2022-10-25T07:14:22.844Z,16.93
2022-10-25T07:16:51.022Z,16.95
2022-10-25T07:19:19.196Z,16.99
2022-10-25T07:21:47.635Z,17.04
2022-10-25T07:24:15.905Z,17.10
2022-10-25T07:26:45.879Z,17.15
2022-10-25T07:29:16.908Z,17.23
2022-10-25T07:31:45.406Z,17.34
2022-10-25T07:34:15.109Z,17.43
2022-10-25T07:36:43.584Z,17.50
2022-10-25T07:39:11.801Z,17.59
2022-10-25T07:41:42.726Z,17.74
2022-10-25T07:44:16.116Z,17.86
2022-10-25T07:46:45.935Z,17.93
2022-10-25T07:49:14.489Z,17.93
2022-10-25T07:51:42.745Z,17.96
2022-10-25T07:54:10.911Z,18.03
2022-10-25T07:56:39.064Z,18.01
2022-10-25T07:59:07.219Z,18.02
2022-10-25T08:01:36.513Z,18.01
2022-10-25T08:04:05.097Z,17.94
2022-10-25T08:06:33.259Z,17.88
2022-10-25T08:09:09.730Z,17.87
2022-10-25T08:11:48.710Z,17.90
2022-10-25T08:14:17.077Z,17.96
2022-10-25T08:16:45.387Z,18.01
2022-10-25T08:19:16.617Z,18.08
2022-10-25T08:21:44.768Z,18.18
2022-10-25T08:24:12.946Z,18.14
2022-10-25T08:26:41.614Z,18.13
2022-10-25T08:29:09.859Z,18.26
2022-10-25T08:31:38.125Z,18.50
2022-10-25T08:34:06.355Z,18.68
2022-10-25T08:36:34.617Z,18.89
2022-10-25T08:39:02.856Z,19.02
2022-10-25T08:41:56.103Z,19.35
2022-10-25T08:45:06.075Z,19.44
2022-10-25T08:47:40.827Z,19.42
2022-10-25T08:50:16.920Z,19.28
2022-10-25T08:52:50.016Z,19.25
2022-10-25T08:55:26.468Z,19.34
2022-10-25T08:57:56.136Z,19.32
2022-10-25T09:00:26.375Z,19.26
2022-10-25T09:02:56.795Z,19.33
2022-10-25T09:05:47.395Z,19.39
2022-10-25T09:08:40.228Z,19.35
2022-10-25T09:11:20.388Z,19.38
2022-10-25T09:14:06.825Z,19.38
2022-10-25T09:16:45.011Z,19.34
2022-10-25T09:19:35.232Z,19.33
2022-10-25T09:22:20.168Z,19.49
2022-10-25T09:24:57.897Z,19.57
2022-10-25T09:27:59.364Z,19.67
2022-10-25T09:30:29.937Z,19.79
2022-10-25T09:33:02.766Z,19.92
2022-10-25T09:35:45.333Z,20.11
2022-10-25T09:38:17.199Z,20.16
2022-10-25T09:41:23.676Z,20.11
2022-10-25T09:44:14.242Z,20.15
2022-10-25T09:46:53.844Z,20.14
2022-10-25T09:49:44.371Z,20.23
2022-10-25T09:52:15.408Z,20.34
2022-10-25T09:54:53.918Z,20.48
2022-10-25T09:57:22.054Z,20.70
2022-10-25T09:59:52.351Z,20.66
2022-10-25T10:02:25.203Z,20.64
2022-10-25T10:04:54.326Z,20.79
2022-10-25T10:07:34.654Z,20.77
2022-10-25T10:10:05.917Z,20.74
2022-10-25T10:15:59.155Z,20.74
2022-10-25T10:18:32.338Z,20.73
2022-10-25T10:21:05.380Z,20.72
2022-10-25T10:23:42.062Z,20.61
2022-10-25T10:26:34.329Z,20.62
2022-10-25T10:29:37.409Z,20.82
2022-10-25T10:32:42.605Z,21.03
2022-10-25T10:35:35.385Z,21.28
2022-10-25T10:38:18.353Z,21.35
2022-10-25T10:40:50.693Z,21.30
2022-10-25T10:43:38.191Z,21.14
2022-10-25T10:46:17.488Z,21.16
2022-10-25T10:48:52.615Z,21.24
2022-10-25T10:51:43.502Z,21.36
2022-10-25T10:54:46.295Z,21.59
2022-10-25T10:57:28.764Z,21.66
2022-10-25T10:59:58.045Z,21.81
2022-10-25T11:02:26.579Z,21.68
2022-10-25T11:04:56.759Z,21.87
2022-10-25T11:07:33.428Z,21.97
2022-10-25T11:10:16.856Z,22.02
2022-10-25T11:12:45.116Z,21.98
2022-10-25T11:15:14.931Z,22.01
2022-10-25T11:17:58.319Z,22.05
2022-10-25T11:20:44.553Z,22.27
2022-10-25T11:23:31.560Z,22.63
2022-10-25T11:26:15.112Z,22.94
2022-10-25T11:28:51.083Z,23.29
2022-10-25T11:31:34.592Z,23.58
2022-10-25T11:34:14.106Z,23.73
2022-10-25T11:36:57.214Z,23.73
2022-10-25T11:40:05.079Z,23.75
2022-10-25T11:42:58.262Z,23.88
2022-10-25T11:45:43.410Z,23.90
2022-10-25T11:48:23.263Z,23.70
2022-10-25T11:51:10.559Z,23.88
2022-10-25T11:54:08.499Z,24.07
2022-10-25T11:56:57.200Z,24.02
2022-10-25T11:59:40.893Z,23.62
2022-10-25T12:02:12.071Z,23.60
2022-10-25T12:04:53.440Z,23.38
2022-10-25T12:07:32.322Z,23.38
2022-10-25T12:10:31.381Z,23.23
2022-10-25T12:15:52.423Z,23.75
2022-10-25T12:19:02.991Z,23.47
2022-10-25T12:21:42.256Z,23.57
2022-10-25T12:24:19.579Z,23.91
2022-10-25T12:26:50.592Z,24.08
2022-10-25T12:29:24.269Z,24.18
2022-10-25T12:32:00.677Z,24.29
2022-10-25T12:34:49.194Z,24.38
2022-10-25T12:37:37.823Z,24.28
2022-10-25T12:40:15.056Z,24.25
2022-10-25T12:42:49.165Z,24.27
2022-10-25T12:45:36.304Z,24.71
2022-10-25T12:48:22.547Z,24.48
2022-10-25T12:51:18.109Z,24.35
2022-10-25T12:54:02.387Z,24.25
2022-10-25T12:56:33.351Z,24.28
2022-10-25T12:59:23.625Z,24.35
2022-10-25T13:02:12.935Z,24.55
2022-10-25T13:04:57.388Z,24.89
2022-10-25T13:07:26.036Z,24.62
2022-10-25T13:10:01.725Z,24.48
2022-10-25T13:12:32.101Z,24.23
2022-10-25T13:15:01.212Z,25.03
2022-10-25T13:17:41.301Z,24.77
2022-10-25T13:20:23.562Z,25.02
2022-10-25T13:22:51.924Z,25.38
2022-10-25T13:25:52.174Z,25.34
2022-10-25T13:28:31.445Z,25.65
2022-10-25T13:31:35.220Z,25.95
2022-10-25T13:34:12.443Z,26.02
2022-10-25T13:36:53.887Z,25.21
2022-10-25T13:39:38.643Z,25.05
2022-10-25T13:42:15.728Z,24.84
2022-10-25T13:45:03.336Z,24.91
2022-10-25T13:47:42.969Z,24.91
2022-10-25T13:50:22.228Z,24.67
2022-10-25T13:53:21.775Z,24.71
2022-10-25T13:56:23.104Z,24.30
2022-10-25T13:58:53.180Z,24.30
2022-10-25T14:01:25.474Z,24.39
2022-10-25T14:04:02.733Z,24.17
2022-10-25T14:06:33.378Z,23.82
2022-10-25T14:09:28.110Z,23.62
2022-10-25T14:12:13.765Z,23.31
2022-10-25T14:15:07.736Z,23.22
2022-10-25T14:17:42.907Z,23.12
2022-10-25T14:20:30.442Z,23.12
2022-10-25T14:23:07.543Z,23.22
2022-10-25T14:25:41.623Z,23.53
2022-10-25T14:28:24.546Z,23.33
2022-10-25T14:30:57.071Z,23.29
2022-10-25T14:33:31.326Z,23.29
2022-10-25T14:36:22.801Z,23.23
2022-10-25T14:38:56.765Z,23.13
2022-10-25T14:41:30.279Z,22.96
2022-10-25T14:43:59.051Z,22.78
2022-10-25T14:46:30.253Z,22.58
2022-10-25T14:49:00.796Z,22.45
2022-10-25T14:51:37.946Z,22.30
2022-10-25T14:54:07.455Z,22.26
2022-10-25T14:56:49.290Z,22.08
2022-10-25T14:59:26.589Z,21.94
2022-10-25T15:02:06.242Z,21.76
2022-10-25T15:04:46.910Z,21.64
2022-10-25T15:07:30.755Z,21.55
2022-10-25T15:10:01.873Z,21.55
2022-10-25T15:12:31.740Z,21.53
2022-10-25T15:15:19.694Z,21.44
2022-10-25T15:17:51.999Z,21.33
2022-10-25T15:20:20.090Z,21.30
2022-10-25T15:22:50.676Z,21.24
2022-10-25T15:25:19.471Z,21.15
2022-10-25T15:27:48.111Z,21.07
2022-10-25T15:30:45.043Z,21.00
2022-10-25T15:33:23.408Z,20.92
2022-10-25T15:35:53.869Z,20.82
2022-10-25T15:38:37.109Z,20.78
2022-10-25T15:41:14.223Z,20.77
2022-10-25T15:43:42.421Z,20.81
2022-10-25T15:46:33.237Z,20.68
2022-10-25T15:49:09.126Z,20.55
2022-10-25T15:51:40.900Z,20.44
2022-10-25T15:54:21.341Z,20.35
2022-10-25T15:56:50.475Z,20.23
2022-10-25T15:59:18.635Z,20.13
2022-10-25T16:01:51.490Z,20.05
2022-10-25T16:04:20.115Z,19.96
2022-10-25T16:06:48.734Z,19.82
2022-10-25T16:09:20.091Z,19.73
2022-10-25T16:11:54.477Z,19.68
2022-10-25T16:14:26.887Z,19.66
2022-10-25T16:16:58.092Z,19.60
2022-10-25T16:19:28.334Z,19.53
2022-10-25T16:21:56.461Z,19.50
2022-10-25T16:24:24.730Z,19.42
2022-10-25T16:26:52.913Z,19.33
2022-10-25T16:29:24.685Z,19.26
2022-10-25T16:31:53.939Z,19.20
2022-10-25T16:34:22.469Z,19.15
2022-10-25T16:36:52.538Z,19.07
2022-10-25T16:39:20.822Z,18.95
2022-10-25T16:41:49.550Z,18.88
2022-10-25T16:44:19.543Z,18.82
2022-10-25T16:46:47.935Z,18.77
2022-10-25T16:49:16.411Z,18.69
2022-10-25T16:51:44.838Z,18.58
2022-10-25T16:54:13.019Z,18.50
2022-10-25T16:56:41.147Z,18.46
2022-10-25T16:59:09.588Z,18.34
2022-10-25T17:01:43.727Z,18.31
2022-10-25T17:04:14.827Z,18.24
2022-10-25T17:06:43.505Z,18.19
2022-10-25T17:09:13.270Z,18.14
2022-10-25T17:11:44.447Z,18.08
2022-10-25T17:14:15.230Z,18.04
2022-10-25T17:16:49.877Z,18.02
2022-10-25T17:19:18.123Z,18.06
2022-10-25T17:21:50.446Z,18.00
2022-10-25T17:24:20.273Z,17.94
2022-10-25T17:26:52.114Z,17.92
2022-10-25T17:29:21.721Z,17.87
2022-10-25T17:31:51.377Z,17.79
2022-10-25T17:34:20.940Z,17.71
2022-10-25T17:39:26.612Z,17.65
2022-10-25T17:41:55.324Z,17.59
2022-10-25T17:44:31.175Z,17.52
2022-10-25T17:47:02.279Z,17.48
2022-10-25T17:49:35.268Z,17.46
2022-10-25T17:52:07.245Z,17.45
2022-10-25T17:54:38.658Z,17.41
2022-10-25T17:57:07.401Z,17.36
2022-10-25T17:59:37.700Z,17.31
2022-10-25T18:02:11.486Z,17.29
2022-10-25T18:04:53.654Z,17.25
2022-10-25T18:07:31.219Z,17.21
2022-10-25T18:10:02.309Z,17.20
2022-10-25T18:12:31.443Z,17.18
2022-10-25T18:14:59.612Z,17.18
2022-10-25T18:17:27.718Z,17.15
2022-10-25T18:19:55.856Z,17.16
2022-10-25T18:22:24.074Z,17.23
2022-10-25T18:24:52.295Z,17.27
2022-10-25T18:27:20.959Z,17.32
2022-10-25T18:29:49.052Z,17.32
2022-10-25T18:32:17.312Z,17.32
2022-10-25T18:34:45.476Z,17.36
2022-10-25T18:37:13.630Z,17.39
2022-10-25T18:39:41.692Z,17.40
2022-10-25T18:42:09.841Z,17.39
2022-10-25T18:44:40.045Z,17.33
2022-10-25T18:47:08.214Z,17.28
2022-10-25T18:49:36.328Z,17.24
2022-10-25T18:52:04.563Z,17.18
2022-10-25T18:54:32.718Z,17.12
2022-10-25T18:57:00.808Z,17.09
2022-10-25T18:59:28.880Z,17.09
2022-10-25T19:01:57.080Z,17.04
2022-10-25T19:04:25.408Z,16.85
2022-10-25T19:06:53.559Z,16.81
2022-10-25T19:09:21.726Z,16.79
2022-10-25T19:11:50.612Z,16.76
2022-10-25T19:14:18.766Z,16.72
2022-10-25T19:16:46.924Z,16.75
2022-10-25T19:19:15.043Z,16.79
2022-10-25T19:21:43.302Z,16.84
2022-10-25T19:24:14.956Z,16.88
2022-10-25T19:26:44.208Z,16.86
2022-10-25T19:29:18.449Z,16.79
2022-10-25T19:31:46.657Z,16.77
2022-10-25T19:34:14.777Z,16.74
2022-10-25T19:36:43.039Z,16.73
2022-10-25T19:39:11.306Z,16.67
2022-10-25T19:41:39.506Z,16.63
2022-10-25T19:44:07.639Z,16.60
2022-10-25T19:46:35.909Z,16.55
2022-10-25T19:49:04.064Z,16.54
2022-10-25T19:51:32.372Z,16.50
2022-10-25T19:54:00.521Z,16.48
2022-10-25T19:56:28.770Z,16.45
2022-10-25T19:58:56.958Z,16.42
2022-10-25T20:01:28.665Z,16.38
2022-10-25T20:03:58.063Z,16.37
2022-10-25T20:06:35.371Z,16.38
2022-10-25T20:09:03.618Z,16.32
2022-10-25T20:11:32.448Z,16.26
2022-10-25T20:14:02.291Z,16.24
2022-10-25T20:16:30.878Z,16.21
2022-10-25T20:19:03.926Z,16.21
2022-10-25T20:21:36.854Z,16.21
2022-10-25T20:24:07.981Z,16.23
2022-10-25T20:26:41.134Z,16.27
2022-10-25T20:29:18.509Z,16.32
2022-10-25T20:31:50.309Z,16.32
2022-10-25T20:34:19.952Z,16.35
2022-10-25T20:36:48.563Z,16.33
2022-10-25T20:39:16.678Z,16.40
2022-10-25T20:41:44.891Z,16.42
2022-10-25T20:44:14.713Z,16.46
2022-10-25T20:46:42.973Z,16.48
2022-10-25T20:49:11.205Z,16.51
2022-10-25T20:51:39.431Z,16.51
2022-10-25T20:54:09.654Z,16.53
2022-10-25T20:56:39.545Z,16.48
2022-10-25T20:59:08.337Z,16.42
2022-10-25T21:01:37.217Z,16.37
2022-10-25T21:04:09.017Z,16.30
2022-10-25T21:06:37.165Z,16.26
2022-10-25T21:09:05.337Z,16.20
2022-10-25T21:11:33.465Z,16.13
2022-10-25T21:14:01.642Z,16.09
2022-10-25T21:16:29.712Z,16.05
2022-10-25T21:19:01.926Z,16.02
2022-10-25T21:21:30.245Z,16.01
2022-10-25T21:23:59.413Z,15.97
2022-10-25T21:26:27.566Z,15.97
2022-10-25T21:28:55.741Z,15.95
2022-10-25T21:31:23.871Z,15.97
2022-10-25T21:33:54.028Z,15.94
2022-10-25T21:36:25.352Z,15.91
2022-10-25T21:38:54.051Z,15.82
2022-10-25T21:41:29.949Z,15.77
2022-10-25T21:43:58.550Z,15.73
2022-10-25T21:46:28.340Z,15.75
2022-10-25T21:48:56.596Z,15.77
2022-10-25T21:51:25.034Z,15.82
2022-10-25T21:53:55.039Z,15.88
2022-10-25T21:56:30.542Z,15.91
2022-10-25T21:59:00.512Z,15.90
2022-10-25T22:01:30.681Z,15.88
2022-10-25T22:03:59.112Z,15.86
2022-10-25T22:06:27.735Z,15.85
2022-10-25T22:08:56.924Z,15.84
2022-10-25T22:11:27.548Z,15.84
2022-10-25T22:14:00.632Z,15.89
2022-10-25T22:16:31.016Z,15.97
2022-10-25T22:19:02.961Z,16.04
2022-10-25T22:21:34.620Z,16.12
2022-10-25T22:24:04.330Z,16.18
2022-10-25T22:26:32.627Z,16.26
2022-10-25T22:29:00.939Z,16.30
2022-10-25T22:31:30.383Z,16.31
2022-10-25T22:34:03.876Z,16.36
2022-10-25T22:36:36.526Z,16.41
2022-10-25T22:39:06.432Z,16.37
2022-10-25T22:41:34.743Z,16.17
2022-10-25T22:44:03.159Z,16.07
2022-10-25T22:46:36.093Z,16.04
2022-10-25T22:49:09.065Z,15.97
2022-10-25T22:51:38.180Z,15.91
2022-10-25T22:54:06.998Z,15.91
2022-10-25T22:56:35.229Z,15.96
2022-10-25T22:59:05.334Z,16.02
2022-10-25T23:01:38.218Z,16.01
2022-10-25T23:04:09.176Z,15.98
2022-10-25T23:06:39.810Z,15.85
2022-10-25T23:09:09.998Z,15.71
2022-10-25T23:11:40.119Z,15.70
2022-10-25T23:14:14.665Z,15.67
2022-10-25T23:16:46.435Z,15.63
2022-10-25T23:19:14.622Z,15.59
2022-10-25T23:21:42.690Z,15.58
2022-10-25T23:24:11.113Z,15.58
2022-10-25T23:26:39.780Z,15.61
2022-10-25T23:29:07.899Z,15.65
2022-10-25T23:31:36.577Z,15.63
2022-10-25T23:34:04.786Z,15.69
2022-10-25T23:36:38.594Z,15.74
2022-10-25T23:39:08.228Z,15.79
2022-10-25T23:41:36.714Z,15.84
2022-10-25T23:44:05.067Z,15.87
2022-10-25T23:46:33.283Z,15.90
2022-10-25T23:49:02.196Z,15.93
2022-10-25T23:51:30.390Z,15.92
2022-10-25T23:53:58.524Z,15.98
2022-10-25T23:56:26.684Z,16.04
2022-10-25T23:58:54.900Z,16.09
